createdAt,value
2019-03-08T00:00:36.051Z,8.53
2019-03-08T00:03:05.142Z,5.27
2019-03-08T00:05:33.941Z,7.73
2019-03-08T00:08:02.739Z,3.53
2019-03-08T00:10:31.557Z,7.23
2019-03-08T00:13:00.401Z,0.93
2019-03-08T00:15:29.188Z,1.67
2019-03-08T00:17:58.073Z,3.13
2019-03-08T00:20:26.872Z,2.37
2019-03-08T00:22:57.707Z,3.47
2019-03-08T00:25:26.496Z,3.50
2019-03-08T00:27:55.319Z,2.07
2019-03-08T00:30:24.136Z,4.43
2019-03-08T00:32:52.947Z,3.13
2019-03-08T00:35:21.714Z,6.53
2019-03-08T00:37:50.532Z,1.77
2019-03-08T00:40:20.953Z,5.90
2019-03-08T00:42:49.731Z,3.30
2019-03-08T00:45:18.800Z,4.13
2019-03-08T00:47:47.623Z,2.37
2019-03-08T00:50:16.486Z,4.07
2019-03-08T00:52:45.264Z,4.13
2019-03-08T00:55:14.372Z,7.23
2019-03-08T00:57:43.163Z,8.10
2019-03-08T01:00:14.025Z,1.60
2019-03-08T01:02:42.839Z,1.67
2019-03-08T01:05:11.722Z,9.37
2019-03-08T01:07:40.570Z,3.27
2019-03-08T01:10:10.711Z,4.47
2019-03-08T01:12:39.525Z,4.37
2019-03-08T01:15:09.028Z,4.67
2019-03-08T01:17:38.450Z,3.83
2019-03-08T01:20:07.964Z,3.50
2019-03-08T01:22:37.079Z,5.20
2019-03-08T01:25:06.613Z,2.40
2019-03-08T01:27:35.503Z,2.60
2019-03-08T01:30:04.999Z,5.63
2019-03-08T01:32:33.792Z,2.10
2019-03-08T01:35:02.545Z,2.00
2019-03-08T01:37:31.343Z,2.80
2019-03-08T01:40:00.164Z,2.17
2019-03-08T01:42:29.097Z,3.87
2019-03-08T01:44:57.888Z,3.60
2019-03-08T01:47:26.679Z,1.57
2019-03-08T01:49:55.479Z,4.97
2019-03-08T01:52:24.293Z,1.47
2019-03-08T01:54:53.066Z,1.50
2019-03-08T01:57:21.881Z,1.73
2019-03-08T01:59:50.682Z,4.60
2019-03-08T02:02:19.483Z,2.77
2019-03-08T02:04:48.295Z,5.03
2019-03-08T02:07:17.129Z,2.90
2019-03-08T02:09:45.911Z,3.27
2019-03-08T02:12:14.735Z,1.47
2019-03-08T02:14:43.453Z,2.77
2019-03-08T02:17:12.237Z,5.73
2019-03-08T02:19:41.047Z,1.40
2019-03-08T02:22:09.835Z,2.53
2019-03-08T02:24:38.613Z,3.23
2019-03-08T02:27:07.391Z,1.23
2019-03-08T02:29:36.186Z,3.70
2019-03-08T02:32:05.523Z,0.83
2019-03-08T02:34:34.422Z,1.03
2019-03-08T02:37:03.183Z,1.80
2019-03-08T02:39:31.881Z,1.00
2019-03-08T02:42:00.685Z,2.10
2019-03-08T02:44:29.481Z,1.03
2019-03-08T02:46:58.257Z,0.87
2019-03-08T02:49:27.055Z,1.00
2019-03-08T02:51:55.846Z,1.53
2019-03-08T02:54:24.927Z,1.57
2019-03-08T02:56:53.712Z,1.60
2019-03-08T02:59:22.627Z,1.40
2019-03-08T03:01:51.401Z,1.10
2019-03-08T03:04:20.192Z,3.60
2019-03-08T03:06:49.003Z,2.10
2019-03-08T03:09:17.807Z,1.30
2019-03-08T03:11:46.595Z,1.77
2019-03-08T03:14:15.298Z,5.37
2019-03-08T03:16:44.099Z,1.27
2019-03-08T03:19:12.885Z,2.00
2019-03-08T03:21:41.759Z,2.77
2019-03-08T03:24:10.521Z,1.83
2019-03-08T03:26:39.299Z,1.17
2019-03-08T03:29:08.112Z,1.73
2019-03-08T03:31:38.484Z,1.60
2019-03-08T03:34:07.290Z,1.13
2019-03-08T03:36:36.113Z,1.97
2019-03-08T03:39:06.425Z,4.60
2019-03-08T03:41:35.190Z,1.50
2019-03-08T03:44:03.976Z,2.10
2019-03-08T03:46:32.758Z,1.60
2019-03-08T03:49:01.604Z,2.57
2019-03-08T03:51:30.720Z,2.40
2019-03-08T03:53:59.500Z,1.60
2019-03-08T03:56:28.304Z,2.17
2019-03-08T03:58:57.104Z,1.50
2019-03-08T04:01:29.215Z,1.67
2019-03-08T04:03:57.992Z,2.10
2019-03-08T04:06:26.818Z,1.40
2019-03-08T04:08:55.597Z,1.57
2019-03-08T04:11:24.470Z,1.70
2019-03-08T04:13:53.279Z,1.00
2019-03-08T04:16:22.007Z,1.20
2019-03-08T04:18:50.735Z,3.23
2019-03-08T04:21:19.563Z,1.30
2019-03-08T04:23:48.353Z,1.33
2019-03-08T04:26:17.150Z,0.73
2019-03-08T04:28:45.936Z,1.77
2019-03-08T04:31:14.731Z,1.50
2019-03-08T04:33:43.513Z,1.40
2019-03-08T04:36:12.304Z,1.20
2019-03-08T04:38:41.078Z,2.77
2019-03-08T04:41:09.876Z,1.40
2019-03-08T04:43:38.621Z,1.97
2019-03-08T04:46:07.415Z,0.80
2019-03-08T04:48:36.224Z,0.90
2019-03-08T04:51:05.476Z,1.43
2019-03-08T04:53:34.242Z,2.73
2019-03-08T04:56:03.025Z,3.20
2019-03-08T04:58:31.810Z,1.20
2019-03-08T05:01:00.608Z,4.80
2019-03-08T05:03:29.694Z,2.53
2019-03-08T05:05:58.493Z,1.37
2019-03-08T05:08:27.251Z,0.47
2019-03-08T05:10:56.741Z,3.70
2019-03-08T05:13:25.584Z,1.10
2019-03-08T05:15:54.340Z,0.73
2019-03-08T05:18:23.461Z,2.73
2019-03-08T05:20:52.255Z,1.90
2019-03-08T05:23:21.039Z,3.33
2019-03-08T05:25:49.818Z,2.83
2019-03-08T05:28:18.624Z,1.03
2019-03-08T05:30:47.396Z,4.23
2019-03-08T05:33:16.528Z,4.67
2019-03-08T05:35:45.337Z,2.43
2019-03-08T05:38:14.103Z,1.00
2019-03-08T05:40:42.817Z,0.67
2019-03-08T05:43:11.652Z,2.03
2019-03-08T05:45:40.468Z,2.30
2019-03-08T05:48:09.455Z,2.10
2019-03-08T05:50:39.459Z,5.67
2019-03-08T05:53:08.304Z,0.50
2019-03-08T05:55:37.110Z,1.57
2019-03-08T05:58:05.915Z,0.83
2019-03-08T06:00:34.879Z,0.83
2019-03-08T06:03:04.590Z,0.37
2019-03-08T06:05:33.386Z,0.40
2019-03-08T06:08:02.170Z,2.43
2019-03-08T06:10:34.560Z,2.40
2019-03-08T06:13:03.551Z,1.73
2019-03-08T06:15:33.915Z,6.70
2019-03-08T06:18:02.757Z,3.77
2019-03-08T06:20:31.553Z,3.00
2019-03-08T06:23:00.386Z,7.30
2019-03-08T06:25:29.187Z,6.30
2019-03-08T06:27:58.002Z,9.63
2019-03-08T06:30:26.776Z,3.97
2019-03-08T06:32:55.612Z,2.10
2019-03-08T06:35:24.359Z,5.70
2019-03-08T06:37:53.156Z,4.00
2019-03-08T06:40:21.967Z,10.23
2019-03-08T06:42:50.756Z,3.57
2019-03-08T06:45:19.564Z,9.43
2019-03-08T06:47:48.867Z,4.77
2019-03-08T06:50:17.792Z,19.47
2019-03-08T06:52:46.614Z,10.47
2019-03-08T06:55:15.362Z,3.33
2019-03-08T06:57:44.064Z,8.67
2019-03-08T07:00:34.213Z,14.80
2019-03-08T07:03:04.084Z,15.50
2019-03-08T07:05:32.859Z,6.63
2019-03-08T07:08:01.653Z,7.90
2019-03-08T07:10:30.419Z,6.07
2019-03-08T07:13:03.373Z,10.23
2019-03-08T07:15:29.982Z,17.63
2019-03-08T07:17:58.773Z,8.63
2019-03-08T07:20:38.774Z,21.07
2019-03-08T07:23:11.925Z,13.23
2019-03-08T07:26:02.717Z,13.57
2019-03-08T07:28:53.581Z,13.70
2019-03-08T07:31:30.839Z,18.30
2019-03-08T07:34:22.905Z,12.87
2019-03-08T07:37:09.692Z,21.50
2019-03-08T07:40:00.425Z,15.50
2019-03-08T07:43:06.371Z,17.97
2019-03-08T07:46:09.618Z,22.90
2019-03-08T07:48:55.456Z,12.17
2019-03-08T07:51:49.532Z,21.10
2019-03-08T07:54:37.377Z,20.00
2019-03-08T07:57:15.261Z,24.73
2019-03-08T08:00:06.248Z,23.70
2019-03-08T08:03:06.241Z,11.10
2019-03-08T08:05:59.437Z,16.40
2019-03-08T08:08:34.207Z,37.90
2019-03-08T08:11:20.658Z,11.30
2019-03-08T08:14:17.821Z,12.03
2019-03-08T08:17:20.953Z,20.10
2019-03-08T08:20:16.043Z,15.70
2019-03-08T08:23:13.766Z,28.60
2019-03-08T08:26:10.417Z,11.87
2019-03-08T08:28:57.268Z,21.33
2019-03-08T08:31:45.110Z,18.43
2019-03-08T08:34:38.891Z,20.00
2019-03-08T08:37:38.825Z,21.00
2019-03-08T08:40:44.923Z,9.83
2019-03-08T08:43:48.375Z,13.30
2019-03-08T08:46:42.141Z,18.73
2019-03-08T08:49:19.884Z,10.60
2019-03-08T08:51:59.662Z,16.27
2019-03-08T08:54:41.233Z,12.17
2019-03-08T08:57:38.126Z,14.17
2019-03-08T09:00:16.804Z,32.23
2019-03-08T09:02:51.839Z,21.50
2019-03-08T09:05:39.672Z,18.40
2019-03-08T09:08:33.308Z,20.30
2019-03-08T09:11:16.967Z,16.20
2019-03-08T09:13:56.230Z,19.73
2019-03-08T09:16:41.993Z,14.03
2019-03-08T09:19:35.840Z,25.90
2019-03-08T09:22:18.588Z,9.30
2019-03-08T09:24:54.236Z,12.10
2019-03-08T09:27:31.179Z,10.57
2019-03-08T09:30:17.588Z,17.93
2019-03-08T09:33:17.631Z,11.97
2019-03-08T09:35:55.679Z,10.83
2019-03-08T09:38:46.231Z,15.37
2019-03-08T09:41:32.620Z,11.33
2019-03-08T09:44:23.308Z,11.80
2019-03-08T09:47:17.272Z,9.50
2019-03-08T09:49:51.741Z,14.17
2019-03-08T09:52:25.461Z,8.87
2019-03-08T09:55:19.417Z,11.70
2019-03-08T09:57:57.789Z,10.17
2019-03-08T10:00:42.290Z,17.87
2019-03-08T10:03:16.807Z,14.87
2019-03-08T10:05:54.094Z,18.53
2019-03-08T10:08:41.764Z,16.60
2019-03-08T10:11:29.614Z,13.40
2019-03-08T10:14:06.684Z,12.53
2019-03-08T10:16:53.431Z,17.53
2019-03-08T10:19:59.903Z,13.73
2019-03-08T10:22:46.393Z,6.73
2019-03-08T10:25:29.377Z,12.80
2019-03-08T10:28:11.966Z,21.43
2019-03-08T10:30:52.212Z,14.23
2019-03-08T10:33:46.607Z,13.93
2019-03-08T10:36:27.378Z,19.23
2019-03-08T10:39:08.661Z,8.00
2019-03-08T10:41:52.225Z,7.87
2019-03-08T10:44:46.671Z,9.60
2019-03-08T10:47:56.072Z,17.10
2019-03-08T10:50:42.491Z,12.27
2019-03-08T10:53:36.626Z,11.83
2019-03-08T10:56:30.890Z,12.30
2019-03-08T10:59:37.209Z,13.07
2019-03-08T11:02:24.144Z,14.03
2019-03-08T11:05:14.872Z,14.67
2019-03-08T11:08:05.486Z,11.07
2019-03-08T11:10:52.002Z,12.13
2019-03-08T11:13:43.584Z,13.23
2019-03-08T11:16:44.017Z,9.37
2019-03-08T11:19:44.249Z,10.67
2019-03-08T11:22:38.271Z,13.73
2019-03-08T11:25:17.368Z,7.93
2019-03-08T11:28:02.359Z,26.67
2019-03-08T11:30:54.037Z,10.63
2019-03-08T11:33:30.472Z,12.13
2019-03-08T11:36:21.946Z,10.73
2019-03-08T11:39:05.751Z,12.57
2019-03-08T11:41:45.327Z,11.30
2019-03-08T11:44:21.455Z,7.50
2019-03-08T11:47:09.330Z,10.43
2019-03-08T11:50:00.115Z,10.90
2019-03-08T11:52:47.454Z,10.30
2019-03-08T11:55:25.680Z,10.83
2019-03-08T11:58:15.354Z,11.53
2019-03-08T12:01:07.300Z,8.00
2019-03-08T12:03:58.248Z,7.47
2019-03-08T12:07:04.333Z,7.20
2019-03-08T12:09:41.923Z,9.93
2019-03-08T12:12:32.496Z,8.60
2019-03-08T12:15:20.268Z,7.03
2019-03-08T12:18:08.113Z,12.67
2019-03-08T12:20:46.308Z,12.80
2019-03-08T12:23:42.884Z,14.80
2019-03-08T12:26:39.698Z,13.00
2019-03-08T12:29:32.267Z,12.97
2019-03-08T12:32:07.911Z,9.20
2019-03-08T12:34:54.607Z,12.10
2019-03-08T12:37:42.734Z,14.73
2019-03-08T12:40:45.937Z,9.07
2019-03-08T12:43:32.434Z,15.53
2019-03-08T12:46:29.323Z,16.17
2019-03-08T12:49:17.154Z,10.63
2019-03-08T12:51:57.586Z,7.87
2019-03-08T12:54:32.318Z,9.13
2019-03-08T12:57:22.969Z,10.40
2019-03-08T13:00:19.925Z,13.53
2019-03-08T13:03:10.620Z,8.63
2019-03-08T13:05:58.441Z,2.90
2019-03-08T13:08:52.425Z,7.57
2019-03-08T13:11:21.294Z,9.70
2019-03-08T13:13:50.053Z,10.97
2019-03-08T13:16:18.860Z,8.70
2019-03-08T13:18:47.675Z,4.10
2019-03-08T13:21:16.535Z,14.50
2019-03-08T13:23:45.471Z,4.73
2019-03-08T13:26:14.249Z,7.60
2019-03-08T13:28:43.352Z,7.60
2019-03-08T13:31:12.140Z,9.53
2019-03-08T13:33:40.951Z,7.40
2019-03-08T13:36:09.753Z,6.73
2019-03-08T13:38:38.571Z,8.33
2019-03-08T13:41:07.396Z,7.57
2019-03-08T13:43:36.430Z,8.10
2019-03-08T13:46:05.303Z,8.93
2019-03-08T13:48:34.134Z,8.00
2019-03-08T13:51:02.999Z,7.70
2019-03-08T13:53:31.815Z,8.60
2019-03-08T13:56:00.633Z,10.73
2019-03-08T13:58:29.622Z,7.03
2019-03-08T14:00:58.603Z,3.93
2019-03-08T14:03:27.404Z,10.60
2019-03-08T14:05:56.260Z,9.70
2019-03-08T14:08:25.050Z,3.83
2019-03-08T14:10:53.978Z,12.17
2019-03-08T14:13:22.913Z,13.97
2019-03-08T14:15:51.747Z,7.63
2019-03-08T14:18:20.539Z,13.77
2019-03-08T14:20:49.986Z,9.00
2019-03-08T14:23:18.840Z,8.57
2019-03-08T14:25:47.679Z,7.77
2019-03-08T14:28:16.479Z,11.57
2019-03-08T14:31:12.488Z,6.40
2019-03-08T14:33:41.135Z,13.03
2019-03-08T14:36:10.258Z,16.67
2019-03-08T14:38:39.267Z,10.97
2019-03-08T14:41:12.718Z,4.70
2019-03-08T14:43:52.425Z,13.37
2019-03-08T14:46:26.301Z,12.90
2019-03-08T14:48:55.125Z,8.27
2019-03-08T14:51:23.924Z,14.47
2019-03-08T14:53:52.661Z,6.37
2019-03-08T14:56:21.473Z,16.50
2019-03-08T14:58:50.291Z,8.07
2019-03-08T15:01:19.133Z,5.40
2019-03-08T15:03:47.951Z,5.30
2019-03-08T15:06:16.774Z,3.20
2019-03-08T15:08:45.574Z,5.77
2019-03-08T15:11:14.414Z,4.43
2019-03-08T15:13:43.480Z,14.63
2019-03-08T15:16:12.342Z,8.77
2019-03-08T15:18:41.159Z,3.97
2019-03-08T15:21:09.885Z,9.27
2019-03-08T15:23:38.704Z,11.53
2019-03-08T15:26:07.604Z,6.60
2019-03-08T15:28:36.393Z,12.60
2019-03-08T15:31:05.252Z,12.50
2019-03-08T15:33:34.003Z,11.47
2019-03-08T15:36:02.837Z,11.80
2019-03-08T15:38:31.661Z,14.43
2019-03-08T15:41:00.496Z,8.77
2019-03-08T15:43:29.553Z,7.60
2019-03-08T15:45:58.426Z,14.37
2019-03-08T15:48:27.217Z,11.63
2019-03-08T15:50:56.024Z,5.37
2019-03-08T15:53:25.155Z,12.03
2019-03-08T15:55:53.884Z,10.30
2019-03-08T15:58:22.690Z,14.60
2019-03-08T16:00:51.497Z,6.00
2019-03-08T16:03:20.296Z,15.93
2019-03-08T16:05:49.145Z,13.97
2019-03-08T16:08:17.968Z,11.67
2019-03-08T16:10:46.812Z,8.17
2019-03-08T16:13:15.662Z,9.67
2019-03-08T16:15:44.453Z,5.43
2019-03-08T16:18:13.257Z,12.73
2019-03-08T16:20:42.156Z,8.23
2019-03-08T16:23:10.931Z,9.53
2019-03-08T16:25:47.247Z,6.60
2019-03-08T16:28:10.926Z,9.23
2019-03-08T16:30:43.728Z,5.63
2019-03-08T16:33:19.402Z,8.73
2019-03-08T16:35:57.239Z,7.00
2019-03-08T16:38:32.372Z,7.97
2019-03-08T16:41:23.148Z,11.07
2019-03-08T16:43:58.976Z,7.63
2019-03-08T16:46:43.947Z,7.20
2019-03-08T16:49:34.340Z,6.90
2019-03-08T16:52:23.355Z,9.57
2019-03-08T16:55:17.675Z,6.93
2019-03-08T16:57:48.807Z,6.47
2019-03-08T17:00:31.041Z,7.23
2019-03-08T17:03:18.908Z,6.53
2019-03-08T17:06:05.750Z,7.37
2019-03-08T17:08:42.213Z,7.00
2019-03-08T17:11:30.098Z,4.00
2019-03-08T17:14:17.785Z,6.53
2019-03-08T17:16:58.363Z,6.37
2019-03-08T17:19:51.975Z,4.07
2019-03-08T17:22:29.625Z,3.23
2019-03-08T17:25:17.660Z,7.90
2019-03-08T17:28:17.569Z,8.03
2019-03-08T17:31:14.642Z,5.33
2019-03-08T17:34:11.757Z,4.73
2019-03-08T17:36:48.664Z,5.00
2019-03-08T17:39:23.292Z,5.00
2019-03-08T17:41:58.500Z,3.77
2019-03-08T17:44:49.741Z,12.27
2019-03-08T17:47:37.283Z,5.40
2019-03-08T17:50:20.812Z,8.63
2019-03-08T17:53:07.563Z,3.50
2019-03-08T17:55:54.210Z,8.17
2019-03-08T17:58:39.684Z,22.63
2019-03-08T18:01:42.927Z,11.10
2019-03-08T18:04:39.304Z,6.90
2019-03-08T18:07:16.532Z,8.27
2019-03-08T18:10:16.892Z,6.37
2019-03-08T18:12:59.079Z,7.63
2019-03-08T18:15:45.783Z,2.90
2019-03-08T18:18:31.865Z,5.60
2019-03-08T18:21:19.727Z,5.83
2019-03-08T18:24:06.168Z,11.63
2019-03-08T18:26:53.258Z,11.73
2019-03-08T18:29:53.155Z,8.73
2019-03-08T18:32:46.827Z,10.20
2019-03-08T18:35:34.713Z,9.43
2019-03-08T18:38:16.925Z,11.73
2019-03-08T18:40:51.268Z,12.27
2019-03-08T18:43:42.308Z,6.07
2019-03-08T18:46:30.177Z,8.17
2019-03-08T18:49:04.639Z,9.40
2019-03-08T18:51:55.783Z,6.47
2019-03-08T18:54:39.573Z,13.10
2019-03-08T18:57:45.354Z,10.27
2019-03-08T19:00:36.294Z,12.37
2019-03-08T19:03:23.191Z,13.87
2019-03-08T19:06:11.301Z,13.60
2019-03-08T19:08:48.698Z,8.90
2019-03-08T19:11:36.567Z,5.97
2019-03-08T19:14:27.457Z,8.83
2019-03-08T19:17:18.110Z,8.07
2019-03-08T19:19:55.755Z,7.77
2019-03-08T19:22:42.373Z,9.53
2019-03-08T19:25:39.535Z,14.23
2019-03-08T19:28:37.391Z,7.50
2019-03-08T19:31:24.113Z,9.47
2019-03-08T19:33:59.819Z,10.30
2019-03-08T19:36:46.638Z,11.37
2019-03-08T19:39:40.398Z,9.13
2019-03-08T19:42:24.604Z,9.90
2019-03-08T19:45:00.358Z,5.93
2019-03-08T19:47:48.279Z,7.13
2019-03-08T19:50:39.358Z,10.03
2019-03-08T19:53:25.879Z,16.30
2019-03-08T19:56:17.028Z,9.83
2019-03-08T19:58:59.042Z,9.37
2019-03-08T20:01:45.888Z,8.00
2019-03-08T20:04:36.982Z,13.47
2019-03-08T20:07:37.032Z,13.73
2019-03-08T20:10:14.613Z,10.60
2019-03-08T20:13:03.135Z,6.00
2019-03-08T20:15:38.723Z,9.97
2019-03-08T20:18:17.578Z,7.53
2019-03-08T20:20:56.558Z,9.83
2019-03-08T20:23:55.474Z,15.30
2019-03-08T20:26:42.400Z,8.97
2019-03-08T20:29:24.560Z,6.40
2019-03-08T20:32:31.021Z,10.30
2019-03-08T20:35:24.884Z,19.73
2019-03-08T20:38:16.691Z,11.57
2019-03-08T20:41:16.911Z,10.70
2019-03-08T20:44:14.209Z,7.03
2019-03-08T20:46:50.380Z,16.97
2019-03-08T20:49:19.442Z,9.63
2019-03-08T20:51:48.464Z,8.30
2019-03-08T20:54:17.628Z,14.27
2019-03-08T20:56:46.633Z,7.80
2019-03-08T20:59:15.735Z,10.97
2019-03-08T21:01:44.825Z,11.60
2019-03-08T21:04:14.053Z,16.63
2019-03-08T21:06:43.139Z,18.90
2019-03-08T21:09:12.986Z,8.63
2019-03-08T21:11:42.283Z,10.33
2019-03-08T21:14:11.319Z,11.00
2019-03-08T21:16:40.261Z,7.93
2019-03-08T21:19:09.215Z,13.63
2019-03-08T21:21:38.231Z,10.80
2019-03-08T21:24:08.521Z,7.97
2019-03-08T21:26:37.585Z,12.53
2019-03-08T21:29:06.517Z,9.60
2019-03-08T21:31:35.398Z,23.90
2019-03-08T21:34:04.299Z,10.50
2019-03-08T21:36:33.217Z,7.80
2019-03-08T21:39:02.124Z,8.83
2019-03-08T21:41:31.025Z,14.43
2019-03-08T21:43:59.918Z,8.63
2019-03-08T21:46:28.795Z,11.47
2019-03-08T21:48:57.625Z,18.47
2019-03-08T21:51:26.386Z,10.47
2019-03-08T21:53:55.559Z,11.40
2019-03-08T21:56:24.400Z,10.03
2019-03-08T21:58:53.313Z,14.20
2019-03-08T22:01:22.175Z,9.13
2019-03-08T22:03:57.061Z,11.37
2019-03-08T22:06:25.995Z,15.97
2019-03-08T22:09:13.505Z,8.20
2019-03-08T22:11:44.071Z,16.03
2019-03-08T22:14:12.987Z,11.27
2019-03-08T22:16:41.784Z,12.90
2019-03-08T22:19:10.635Z,6.37
2019-03-08T22:21:39.423Z,15.07
2019-03-08T22:24:13.319Z,9.33
2019-03-08T22:26:39.772Z,10.30
2019-03-08T22:29:08.616Z,10.17
2019-03-08T22:31:37.435Z,10.77
2019-03-08T22:34:06.270Z,9.20
2019-03-08T22:36:35.100Z,8.17
2019-03-08T22:39:05.173Z,12.73
2019-03-08T22:41:33.952Z,12.30
2019-03-08T22:44:02.689Z,14.73
2019-03-08T22:46:31.490Z,11.47
2019-03-08T22:49:00.271Z,7.90
2019-03-08T22:51:29.383Z,11.23
2019-03-08T22:53:58.217Z,9.53
2019-03-08T22:56:27.040Z,11.17
2019-03-08T22:58:55.817Z,12.37
2019-03-08T23:01:25.264Z,12.90
2019-03-08T23:03:55.308Z,8.27
2019-03-08T23:06:24.116Z,14.67
2019-03-08T23:08:52.918Z,6.47
2019-03-08T23:11:21.731Z,11.23
2019-03-08T23:13:50.556Z,14.57
2019-03-08T23:16:19.269Z,11.40
2019-03-08T23:18:48.056Z,16.23
2019-03-08T23:21:16.826Z,9.67
2019-03-08T23:23:45.635Z,15.97
2019-03-08T23:26:14.436Z,11.83
2019-03-08T23:28:46.729Z,15.00
2019-03-08T23:31:37.618Z,12.57
2019-03-08T23:34:06.394Z,9.50
2019-03-08T23:36:35.211Z,8.30
2019-03-08T23:39:05.671Z,11.20
2019-03-08T23:41:34.460Z,5.90
2019-03-08T23:44:03.436Z,8.57
2019-03-08T23:46:32.242Z,9.70
2019-03-08T23:49:01.038Z,12.53
2019-03-08T23:51:29.992Z,12.57
2019-03-08T23:53:58.794Z,11.20
2019-03-08T23:56:27.602Z,9.00
2019-03-08T23:58:56.484Z,8.17
